createdAt,value
2023-02-16T00:00:33.205Z,26.67
2023-02-16T00:03:00.740Z,29.47
2023-02-16T00:05:29.768Z,28.17
2023-02-16T00:08:00.100Z,27.53
2023-02-16T00:10:30.516Z,30.23
2023-02-16T00:13:15.883Z,25.30
2023-02-16T00:15:43.475Z,26.00
2023-02-16T00:18:17.304Z,25.43
2023-02-16T00:20:45.034Z,26.57
2023-02-16T00:23:13.921Z,28.50
2023-02-16T00:25:41.565Z,28.33
2023-02-16T00:28:15.769Z,29.50
2023-02-16T00:30:43.365Z,27.47
2023-02-16T00:33:15.243Z,28.53
2023-02-16T00:35:42.871Z,31.60
2023-02-16T00:38:10.441Z,28.87
2023-02-16T00:40:39.935Z,27.07
2023-02-16T00:43:07.912Z,29.37
2023-02-16T00:45:38.224Z,28.67
2023-02-16T00:48:06.224Z,29.43
2023-02-16T00:50:35.347Z,27.80
2023-02-16T00:53:03.382Z,33.37
2023-02-16T00:55:33.475Z,27.73
2023-02-16T00:58:04.435Z,27.57
2023-02-16T01:00:35.518Z,29.47
2023-02-16T01:03:06.580Z,28.33
2023-02-16T01:05:34.268Z,27.40
2023-02-16T01:08:19.899Z,25.80
2023-02-16T01:11:05.674Z,25.87
2023-02-16T01:13:39.841Z,27.90
2023-02-16T01:16:13.520Z,29.27
2023-02-16T01:18:41.317Z,29.40
2023-02-16T01:21:08.902Z,26.97
2023-02-16T01:23:36.905Z,35.20
2023-02-16T01:26:05.337Z,27.83
2023-02-16T01:28:36.677Z,29.37
2023-02-16T01:31:06.208Z,31.63
2023-02-16T01:33:34.387Z,29.80
2023-02-16T01:36:01.936Z,29.67
2023-02-16T01:38:29.757Z,33.80
2023-02-16T01:41:06.871Z,28.50
2023-02-16T01:43:43.295Z,29.90
2023-02-16T01:46:13.551Z,28.07
2023-02-16T01:48:41.518Z,26.97
2023-02-16T01:51:15.174Z,25.83
2023-02-16T01:53:45.598Z,27.37
2023-02-16T01:56:21.207Z,27.43
2023-02-16T01:58:52.573Z,30.93
2023-02-16T02:01:41.489Z,27.73
2023-02-16T02:04:35.627Z,27.03
2023-02-16T02:07:03.232Z,28.47
2023-02-16T02:09:36.633Z,30.47
2023-02-16T02:12:10.856Z,28.07
2023-02-16T02:14:40.821Z,29.07
2023-02-16T02:17:13.104Z,27.27
2023-02-16T02:19:49.737Z,30.33
2023-02-16T02:23:31.567Z,28.17
2023-02-16T02:26:44.119Z,26.47
2023-02-16T02:29:28.871Z,26.23
2023-02-16T02:32:02.543Z,30.63
2023-02-16T02:34:38.433Z,28.00
2023-02-16T02:37:12.204Z,28.83
2023-02-16T02:39:48.011Z,27.57
2023-02-16T02:42:19.714Z,27.50
2023-02-16T02:44:51.825Z,28.97
2023-02-16T02:47:19.829Z,27.57
2023-02-16T02:49:51.672Z,28.57
2023-02-16T02:52:19.567Z,27.43
2023-02-16T02:55:04.895Z,28.00
2023-02-16T02:57:52.244Z,29.10
2023-02-16T03:00:41.633Z,28.83
2023-02-16T03:03:12.426Z,27.07
2023-02-16T03:05:42.499Z,28.93
2023-02-16T03:08:15.109Z,27.43
2023-02-16T03:11:02.182Z,27.87
2023-02-16T03:13:33.583Z,29.03
2023-02-16T03:16:05.042Z,29.13
2023-02-16T03:18:52.790Z,29.07
2023-02-16T03:21:38.171Z,28.87
2023-02-16T03:24:25.987Z,27.37
2023-02-16T03:27:12.380Z,26.50
2023-02-16T03:29:40.966Z,26.23
2023-02-16T03:32:10.024Z,29.57
2023-02-16T03:34:38.169Z,28.57
2023-02-16T03:37:06.578Z,27.13
2023-02-16T03:39:54.633Z,27.50
2023-02-16T03:42:24.178Z,26.80
2023-02-16T03:44:52.099Z,28.07
2023-02-16T03:47:20.983Z,26.20
2023-02-16T03:49:48.682Z,26.43
2023-02-16T03:52:16.218Z,27.47
2023-02-16T03:54:44.165Z,27.30
2023-02-16T03:57:11.669Z,27.97
2023-02-16T03:59:39.260Z,29.80
2023-02-16T04:02:07.264Z,28.47
2023-02-16T04:04:36.485Z,28.33
2023-02-16T04:07:04.753Z,31.33
2023-02-16T04:09:32.263Z,28.47
2023-02-16T04:12:17.750Z,28.30
2023-02-16T04:14:45.304Z,29.30
2023-02-16T04:17:12.840Z,32.93
2023-02-16T04:19:41.865Z,28.03
2023-02-16T04:22:09.762Z,27.77
2023-02-16T04:24:37.742Z,27.57
2023-02-16T04:27:05.356Z,27.10
2023-02-16T04:29:33.060Z,26.63
2023-02-16T04:32:00.784Z,28.53
2023-02-16T04:34:28.421Z,26.40
2023-02-16T04:36:57.468Z,27.57
2023-02-16T04:39:25.104Z,27.90
2023-02-16T04:41:52.679Z,28.47
2023-02-16T04:44:20.265Z,26.87
2023-02-16T04:46:48.118Z,26.40
2023-02-16T04:49:15.800Z,29.53
2023-02-16T04:51:43.477Z,28.27
2023-02-16T04:54:12.571Z,30.03
2023-02-16T04:56:40.128Z,29.67
2023-02-16T04:59:07.688Z,29.20
2023-02-16T05:01:35.254Z,35.27
2023-02-16T05:04:02.809Z,31.20
2023-02-16T05:06:30.380Z,33.23
2023-02-16T05:08:57.960Z,28.73
2023-02-16T05:11:45.033Z,30.93
2023-02-16T05:14:36.357Z,26.53
2023-02-16T05:17:04.157Z,28.60
2023-02-16T05:19:31.850Z,29.13
2023-02-16T05:21:59.409Z,32.90
2023-02-16T05:24:28.497Z,29.03
2023-02-16T05:26:57.891Z,29.63
2023-02-16T05:29:25.634Z,28.97
2023-02-16T05:31:53.407Z,25.97
2023-02-16T05:34:21.334Z,28.70
2023-02-16T05:36:48.882Z,27.77
2023-02-16T05:39:16.462Z,30.00
2023-02-16T05:41:44.085Z,29.30
2023-02-16T05:44:13.874Z,29.60
2023-02-16T05:46:41.814Z,30.10
2023-02-16T05:49:10.256Z,29.33
2023-02-16T05:51:38.268Z,31.30
2023-02-16T05:54:06.196Z,32.07
2023-02-16T05:56:34.256Z,29.07
2023-02-16T05:59:01.809Z,27.60
2023-02-16T06:01:30.709Z,30.47
2023-02-16T06:03:58.222Z,31.30
2023-02-16T06:06:25.807Z,31.13
2023-02-16T06:08:53.349Z,28.73
2023-02-16T06:11:39.358Z,31.77
2023-02-16T06:14:09.050Z,27.10
2023-02-16T06:16:39.707Z,26.30
2023-02-16T06:19:07.738Z,28.10
2023-02-16T06:21:36.389Z,28.57
2023-02-16T06:24:04.474Z,30.33
2023-02-16T06:26:32.877Z,28.13
2023-02-16T06:29:00.784Z,27.43
2023-02-16T06:31:28.806Z,29.43
2023-02-16T06:33:57.969Z,28.40
2023-02-16T06:36:26.247Z,28.53
2023-02-16T06:38:53.793Z,29.33
2023-02-16T06:41:32.201Z,29.53
2023-02-16T06:44:00.385Z,32.17
2023-02-16T06:46:28.542Z,28.60
2023-02-16T06:48:57.470Z,29.30
2023-02-16T06:51:25.294Z,30.93
2023-02-16T06:53:52.800Z,31.57
2023-02-16T06:56:20.328Z,31.60
2023-02-16T06:58:48.210Z,32.90
2023-02-16T07:01:16.638Z,32.17
2023-02-16T07:03:44.335Z,31.60
2023-02-16T07:06:13.190Z,30.27
2023-02-16T07:08:40.716Z,30.37
2023-02-16T07:11:08.432Z,33.93
2023-02-16T07:13:36.639Z,30.57
2023-02-16T07:16:04.518Z,32.83
2023-02-16T07:18:32.457Z,31.27
2023-02-16T07:21:00.086Z,30.60
2023-02-16T07:23:29.221Z,32.23
2023-02-16T07:25:56.733Z,28.83
2023-02-16T07:28:24.321Z,30.37
2023-02-16T07:30:52.049Z,31.03
2023-02-16T07:33:20.465Z,32.63
2023-02-16T07:35:48.164Z,29.70
2023-02-16T07:38:15.712Z,29.00
2023-02-16T07:40:44.628Z,31.37
2023-02-16T07:43:12.165Z,30.83
2023-02-16T07:45:39.881Z,30.67
2023-02-16T07:48:07.461Z,30.23
2023-02-16T07:50:35.072Z,30.47
2023-02-16T07:53:03.136Z,28.80
2023-02-16T07:55:31.132Z,31.00
2023-02-16T07:58:00.135Z,29.77
2023-02-16T08:00:27.994Z,30.27
2023-02-16T08:02:56.039Z,30.30
2023-02-16T08:05:23.918Z,28.97
2023-02-16T08:07:51.511Z,31.13
2023-02-16T08:10:19.219Z,29.10
2023-02-16T08:12:46.810Z,28.97
2023-02-16T08:15:16.661Z,32.07
2023-02-16T08:17:44.341Z,31.60
2023-02-16T08:20:12.574Z,30.23
2023-02-16T08:22:40.174Z,31.40
2023-02-16T08:25:08.298Z,28.47
2023-02-16T08:27:36.044Z,31.30
2023-02-16T08:30:03.691Z,30.17
2023-02-16T08:32:32.676Z,31.63
2023-02-16T08:35:00.724Z,30.93
2023-02-16T08:37:28.678Z,30.20
2023-02-16T08:39:56.236Z,30.80
2023-02-16T08:42:23.769Z,31.60
2023-02-16T08:44:51.353Z,29.17
2023-02-16T08:47:20.419Z,31.23
2023-02-16T08:49:49.934Z,32.17
2023-02-16T08:52:17.671Z,31.87
2023-02-16T08:54:45.220Z,30.43
2023-02-16T08:57:13.347Z,31.33
2023-02-16T08:59:40.952Z,29.40
2023-02-16T09:02:08.713Z,30.97
2023-02-16T09:04:36.893Z,31.40
2023-02-16T09:07:06.210Z,33.10
2023-02-16T09:09:33.996Z,31.13
2023-02-16T09:12:01.519Z,31.17
2023-02-16T09:14:29.239Z,31.93
2023-02-16T09:16:58.270Z,30.70
2023-02-16T09:19:26.023Z,31.93
2023-02-16T09:21:56.222Z,31.83
2023-02-16T09:24:25.256Z,30.97
2023-02-16T09:26:52.867Z,31.47
2023-02-16T09:29:21.246Z,29.40
2023-02-16T09:31:49.412Z,29.27
2023-02-16T09:34:19.173Z,31.17
2023-02-16T09:36:47.167Z,30.67
2023-02-16T09:39:16.414Z,33.07
2023-02-16T09:42:01.526Z,33.67
2023-02-16T09:44:39.794Z,30.80
2023-02-16T09:47:12.323Z,29.43
2023-02-16T09:49:42.309Z,32.80
2023-02-16T09:52:15.094Z,30.03
2023-02-16T09:54:47.627Z,30.23
2023-02-16T09:57:22.259Z,32.57
2023-02-16T09:59:53.444Z,30.30
2023-02-16T10:02:35.319Z,30.60
2023-02-16T10:05:20.147Z,29.23
2023-02-16T10:08:00.920Z,33.27
2023-02-16T10:10:34.129Z,29.30
2023-02-16T10:13:07.475Z,31.07
2023-02-16T10:15:36.151Z,33.00
2023-02-16T10:18:08.136Z,33.13
2023-02-16T10:20:38.051Z,30.30
2023-02-16T10:23:10.762Z,31.83
2023-02-16T10:25:43.296Z,30.67
2023-02-16T10:28:17.587Z,30.63
2023-02-16T10:30:50.670Z,31.40
2023-02-16T10:33:26.430Z,33.50
2023-02-16T10:36:00.322Z,31.90
2023-02-16T10:38:33.006Z,30.13
2023-02-16T10:41:05.126Z,28.03
2023-02-16T10:43:43.149Z,30.70
2023-02-16T10:46:11.750Z,31.57
2023-02-16T10:48:39.305Z,30.47
2023-02-16T10:51:09.204Z,32.43
2023-02-16T10:53:41.907Z,32.70
2023-02-16T10:56:44.742Z,30.63
2023-02-16T10:59:17.593Z,31.47
2023-02-16T11:01:46.268Z,32.97
2023-02-16T11:04:36.638Z,29.93
2023-02-16T11:07:06.916Z,28.97
2023-02-16T11:09:34.406Z,30.73
2023-02-16T11:12:02.331Z,30.57
2023-02-16T11:14:32.142Z,31.23
2023-02-16T11:17:08.550Z,28.53
2023-02-16T11:19:36.564Z,28.77
2023-02-16T11:22:04.157Z,29.07
2023-02-16T11:24:33.732Z,28.70
2023-02-16T11:27:03.344Z,27.63
2023-02-16T11:29:32.442Z,29.93
2023-02-16T11:32:00.650Z,27.13
2023-02-16T11:34:32.762Z,26.43
2023-02-16T11:37:06.487Z,25.67
2023-02-16T11:39:37.541Z,26.73
2023-02-16T11:42:08.213Z,27.50
2023-02-16T11:44:39.644Z,24.83
2023-02-16T11:47:08.967Z,25.70
2023-02-16T11:49:38.722Z,26.70
2023-02-16T11:52:27.741Z,26.03
2023-02-16T11:55:09.612Z,26.20
2023-02-16T11:57:38.799Z,26.97
2023-02-16T12:00:18.113Z,26.40
2023-02-16T12:03:07.988Z,25.37
2023-02-16T12:05:41.384Z,24.93
2023-02-16T12:08:22.198Z,26.33
2023-02-16T12:11:02.022Z,27.13
2023-02-16T12:13:39.060Z,26.63
2023-02-16T12:16:18.080Z,26.93
2023-02-16T12:18:57.530Z,26.07
2023-02-16T12:21:34.793Z,24.97
2023-02-16T12:24:13.857Z,28.17
2023-02-16T12:26:44.912Z,26.40
2023-02-16T12:29:25.537Z,26.10
2023-02-16T12:32:04.141Z,26.23
2023-02-16T12:34:40.296Z,27.43
2023-02-16T12:37:14.367Z,27.37
2023-02-16T12:39:47.582Z,26.67
2023-02-16T12:42:32.749Z,28.17
2023-02-16T12:45:03.247Z,27.17
2023-02-16T12:47:35.477Z,26.40
2023-02-16T12:50:05.323Z,26.33
2023-02-16T12:52:37.653Z,26.73
2023-02-16T12:55:16.890Z,27.07
2023-02-16T12:57:50.108Z,28.77
2023-02-16T13:00:23.990Z,30.07
2023-02-16T13:02:56.783Z,28.63
2023-02-16T13:05:26.892Z,28.43
2023-02-16T13:08:01.433Z,29.87
2023-02-16T13:10:34.314Z,30.20
2023-02-16T13:13:04.278Z,29.10
2023-02-16T13:15:35.744Z,26.90
2023-02-16T13:18:07.972Z,27.50
2023-02-16T13:20:36.245Z,26.20
2023-02-16T13:23:25.750Z,27.70
2023-02-16T13:26:18.226Z,27.20
2023-02-16T13:29:04.664Z,29.43
2023-02-16T13:31:44.740Z,28.77
2023-02-16T13:34:28.829Z,28.20
2023-02-16T13:37:14.580Z,28.70
2023-02-16T13:40:01.172Z,27.93
2023-02-16T13:43:01.093Z,30.40
2023-02-16T13:45:30.867Z,30.80
2023-02-16T13:47:59.014Z,28.13
2023-02-16T13:50:31.146Z,28.13
2023-02-16T13:53:02.175Z,31.07
2023-02-16T13:55:31.684Z,31.73
2023-02-16T13:58:04.406Z,32.80
2023-02-16T14:00:35.973Z,33.63
2023-02-16T14:03:12.160Z,32.17
2023-02-16T14:05:43.035Z,34.00
2023-02-16T14:08:28.572Z,34.10
2023-02-16T14:11:03.871Z,33.13
2023-02-16T14:13:33.691Z,35.87
2023-02-16T14:16:08.093Z,36.43
2023-02-16T14:18:43.206Z,33.83
2023-02-16T14:21:22.073Z,32.77
2023-02-16T14:23:56.115Z,40.17
2023-02-16T14:26:26.642Z,34.50
2023-02-16T14:29:04.130Z,33.20
2023-02-16T14:31:34.181Z,34.03
2023-02-16T14:34:06.402Z,33.97
2023-02-16T14:36:36.003Z,34.13
2023-02-16T14:39:03.863Z,37.73
2023-02-16T14:41:33.273Z,38.27
2023-02-16T14:44:24.811Z,34.60
2023-02-16T14:47:00.780Z,37.20
2023-02-16T14:49:40.590Z,37.67
2023-02-16T14:52:37.242Z,37.37
2023-02-16T14:55:41.636Z,35.63
2023-02-16T14:58:21.066Z,37.80
2023-02-16T15:00:52.666Z,38.50
2023-02-16T15:03:23.287Z,40.03
2023-02-16T15:05:53.625Z,38.03
2023-02-16T15:08:25.313Z,39.03
2023-02-16T15:10:58.442Z,37.67
2023-02-16T15:13:28.205Z,38.33
2023-02-16T15:15:57.837Z,36.87
2023-02-16T15:18:28.296Z,38.90
2023-02-16T15:20:57.419Z,39.03
2023-02-16T15:23:27.801Z,39.03
2023-02-16T15:25:59.602Z,38.70
2023-02-16T15:28:29.397Z,43.67
2023-02-16T15:30:58.383Z,43.60
2023-02-16T15:33:37.141Z,38.27
2023-02-16T15:36:08.934Z,37.77
2023-02-16T15:38:39.653Z,40.57
2023-02-16T15:41:09.232Z,38.93
2023-02-16T15:43:39.970Z,39.97
2023-02-16T15:46:08.815Z,38.70
2023-02-16T15:48:37.693Z,38.80
2023-02-16T15:51:12.077Z,38.90
2023-02-16T15:53:46.712Z,40.07
2023-02-16T15:56:29.746Z,41.57
2023-02-16T15:58:58.578Z,41.30
2023-02-16T16:01:32.891Z,48.73
2023-02-16T16:04:02.961Z,44.50
2023-02-16T16:06:38.469Z,40.37
2023-02-16T16:09:08.608Z,41.23
2023-02-16T16:11:37.807Z,40.70
2023-02-16T16:14:07.363Z,42.43
2023-02-16T16:16:35.180Z,40.27
2023-02-16T16:19:08.940Z,40.30
2023-02-16T16:21:39.289Z,37.67
2023-02-16T16:24:10.312Z,38.43
2023-02-16T16:26:55.285Z,41.23
2023-02-16T16:29:31.752Z,38.37
2023-02-16T16:31:59.575Z,35.37
2023-02-16T16:34:36.181Z,39.73
2023-02-16T16:37:06.843Z,37.07
2023-02-16T16:39:37.473Z,40.43
2023-02-16T16:42:16.722Z,51.17
2023-02-16T16:44:46.590Z,39.07
2023-02-16T16:47:24.808Z,39.40
2023-02-16T16:49:55.490Z,40.03
2023-02-16T16:52:38.748Z,37.53
2023-02-16T16:55:29.526Z,39.17
2023-02-16T16:57:58.539Z,36.83
2023-02-16T17:00:27.851Z,42.80
2023-02-16T17:02:55.437Z,36.07
2023-02-16T17:05:23.624Z,40.37
2023-02-16T17:07:51.844Z,36.60
2023-02-16T17:10:21.297Z,38.67
2023-02-16T17:12:53.618Z,36.80
2023-02-16T17:15:37.639Z,35.63
2023-02-16T17:18:06.204Z,31.80
2023-02-16T17:20:33.964Z,37.30
2023-02-16T17:23:04.555Z,36.93
2023-02-16T17:25:34.103Z,37.00
2023-02-16T17:28:03.961Z,37.93
2023-02-16T17:30:31.548Z,37.07
2023-02-16T17:32:59.471Z,37.00
2023-02-16T17:35:27.221Z,35.77
2023-02-16T17:37:54.768Z,35.80
2023-02-16T17:40:23.727Z,38.70
2023-02-16T17:42:51.995Z,36.30
2023-02-16T17:45:22.647Z,35.43
2023-02-16T17:47:52.392Z,36.03
2023-02-16T17:50:21.267Z,37.17
2023-02-16T17:52:48.803Z,38.03
2023-02-16T17:55:16.637Z,39.13
2023-02-16T17:57:44.128Z,36.80
2023-02-16T18:00:15.038Z,40.23
2023-02-16T18:02:43.875Z,35.63
2023-02-16T18:05:11.482Z,38.60
2023-02-16T18:07:38.973Z,36.13
2023-02-16T18:10:07.526Z,36.20
2023-02-16T18:12:35.004Z,38.43
2023-02-16T18:15:02.501Z,38.17
2023-02-16T18:17:29.978Z,36.67
2023-02-16T18:19:58.882Z,36.57
2023-02-16T18:22:26.500Z,37.00
2023-02-16T18:24:54.075Z,36.80
2023-02-16T18:27:21.607Z,35.47
2023-02-16T18:29:49.193Z,34.70
2023-02-16T18:32:16.659Z,33.63
2023-02-16T18:34:44.210Z,32.80
2023-02-16T18:37:13.075Z,32.83
2023-02-16T18:39:42.829Z,29.93
2023-02-16T18:42:10.479Z,32.57
2023-02-16T18:44:38.101Z,33.07
2023-02-16T18:47:05.713Z,31.40
2023-02-16T18:49:33.372Z,30.43
2023-02-16T18:52:00.874Z,33.00
2023-02-16T18:54:29.728Z,32.87
2023-02-16T18:56:57.218Z,31.47
2023-02-16T18:59:24.814Z,38.47
2023-02-16T19:01:56.239Z,32.27
2023-02-16T19:04:24.222Z,31.23
2023-02-16T19:06:52.039Z,34.27
2023-02-16T19:09:19.764Z,31.97
2023-02-16T19:11:48.833Z,32.10
2023-02-16T19:14:16.749Z,31.07
2023-02-16T19:16:44.939Z,31.80
2023-02-16T19:19:12.440Z,34.70
2023-02-16T19:21:40.996Z,31.70
2023-02-16T19:24:08.918Z,34.37
2023-02-16T19:26:37.164Z,33.67
2023-02-16T19:29:06.303Z,34.13
2023-02-16T19:31:35.445Z,33.40
2023-02-16T19:34:04.535Z,32.87
2023-02-16T19:36:34.072Z,34.27
2023-02-16T19:39:02.395Z,32.43
2023-02-16T19:41:32.073Z,30.03
2023-02-16T19:43:59.800Z,30.87
2023-02-16T19:46:29.413Z,30.97
2023-02-16T19:48:58.256Z,32.57
2023-02-16T19:51:26.652Z,29.90
2023-02-16T19:53:54.779Z,30.30
2023-02-16T19:56:24.853Z,30.40
2023-02-16T19:58:53.016Z,28.80
2023-02-16T20:01:22.424Z,29.50
2023-02-16T20:03:54.120Z,28.47
2023-02-16T20:06:23.345Z,28.80
2023-02-16T20:08:52.021Z,31.30
2023-02-16T20:11:22.010Z,33.30
2023-02-16T20:13:50.399Z,33.30
2023-02-16T20:16:18.943Z,30.70
2023-02-16T20:18:46.680Z,29.50
2023-02-16T20:21:18.007Z,30.23
2023-02-16T20:23:45.845Z,29.50
2023-02-16T20:26:16.209Z,29.37
2023-02-16T20:28:43.760Z,29.40
2023-02-16T20:31:13.225Z,29.43
2023-02-16T20:33:40.994Z,27.10
2023-02-16T20:36:09.012Z,28.40
2023-02-16T20:38:37.883Z,26.37
2023-02-16T20:41:05.740Z,28.13
2023-02-16T20:43:34.115Z,28.83
2023-02-16T20:46:03.061Z,27.13
2023-02-16T20:48:30.766Z,27.23
2023-02-16T20:50:59.656Z,28.30
2023-02-16T20:53:29.704Z,28.07
2023-02-16T20:56:03.417Z,27.17
2023-02-16T20:58:31.136Z,28.07
2023-02-16T21:00:59.019Z,26.37
2023-02-16T21:03:26.701Z,28.43
2023-02-16T21:05:54.532Z,27.17
2023-02-16T21:08:22.278Z,28.97
2023-02-16T21:10:49.797Z,29.20
2023-02-16T21:13:18.707Z,28.10
2023-02-16T21:15:46.237Z,29.83
2023-02-16T21:18:13.905Z,29.10
2023-02-16T21:20:41.452Z,29.20
2023-02-16T21:23:09.278Z,26.63
2023-02-16T21:25:36.815Z,28.70
2023-02-16T21:28:04.690Z,28.53
2023-02-16T21:30:33.583Z,26.83
2023-02-16T21:33:01.079Z,25.27
2023-02-16T21:35:28.697Z,26.97
2023-02-16T21:37:56.655Z,30.00
2023-02-16T21:40:41.792Z,28.53
2023-02-16T21:43:09.385Z,29.37
2023-02-16T21:45:38.250Z,27.67
2023-02-16T21:48:23.613Z,28.00
2023-02-16T21:50:51.151Z,28.57
2023-02-16T21:53:18.722Z,28.53
2023-02-16T21:56:04.441Z,27.20
2023-02-16T21:58:34.010Z,26.40
2023-02-16T22:01:02.924Z,26.63
2023-02-16T22:03:31.004Z,26.57
2023-02-16T22:06:02.666Z,27.70
2023-02-16T22:08:31.077Z,25.53
2023-02-16T22:11:04.530Z,26.50
2023-02-16T22:13:32.266Z,26.97
2023-02-16T22:15:59.872Z,25.67
2023-02-16T22:18:28.851Z,25.60
2023-02-16T22:20:56.405Z,26.70
2023-02-16T22:23:23.929Z,26.80
2023-02-16T22:25:51.473Z,26.60
2023-02-16T22:28:19.078Z,26.97
2023-02-16T22:30:46.619Z,26.70
2023-02-16T22:33:14.662Z,27.07
2023-02-16T22:35:43.563Z,26.37
2023-02-16T22:38:11.157Z,27.93
2023-02-16T22:40:38.734Z,26.10
2023-02-16T22:43:06.238Z,25.43
2023-02-16T22:45:34.531Z,26.70
2023-02-16T22:48:02.200Z,25.40
2023-02-16T22:50:29.860Z,25.13
2023-02-16T22:52:58.713Z,25.03
2023-02-16T22:55:26.457Z,24.40
2023-02-16T22:57:53.988Z,24.83
2023-02-16T23:00:21.641Z,25.83
2023-02-16T23:02:49.225Z,26.23
2023-02-16T23:05:17.107Z,25.47
2023-02-16T23:07:44.619Z,23.73
2023-02-16T23:10:13.610Z,25.20
2023-02-16T23:12:41.157Z,27.00
2023-02-16T23:15:09.497Z,25.13
2023-02-16T23:17:37.211Z,25.30
2023-02-16T23:20:05.424Z,25.00
2023-02-16T23:22:32.977Z,24.83
2023-02-16T23:25:18.463Z,24.37
2023-02-16T23:27:47.421Z,24.10
2023-02-16T23:30:15.337Z,23.70
2023-02-16T23:32:42.868Z,24.50
2023-02-16T23:35:10.404Z,25.17
2023-02-16T23:37:38.208Z,25.33
2023-02-16T23:40:06.664Z,25.70
2023-02-16T23:42:34.274Z,24.70
2023-02-16T23:45:03.110Z,23.57
2023-02-16T23:47:30.657Z,23.63
2023-02-16T23:49:58.212Z,24.03
2023-02-16T23:52:26.014Z,24.03
2023-02-16T23:54:53.533Z,26.37
2023-02-16T23:57:21.089Z,24.27
2023-02-16T23:59:48.869Z,23.63
